Daufuskie Island, SC (29915)

11:15 AM EDT on August 29, 2015 (GMT -0400)
Hearthwood Dr-Sea Pines | | Change Station
CLOSE
Current Station
Personal Weather Station
Location: Hilton Head Island, SC
Elevation: 37 ft
Nearby Weather Stations

Elev 37 ft 32.15 °N, 80.79 °W | Updated 1 minute ago

Thunderstorm
Thunderstorm
77.3 °F
Feels Like 79 °F
N
0.0
Wind Variable Wind from ENE

Today
High -- | Low -- °F
--% Chance of Precip.
Yesterday
High -- | Low -- °F
Precip. -- in
6:56 AM 7:51 PM
Full, 100% visible
Pressure 30.17 in
Visibility 10.0 miles
Clouds Mostly Cloudy 1700 ft
Heat Index 79 °F
Dew Point 77 °F
Humidity 99%
Rainfall 0.14 in
Snow Depth Not available.
UV 4 out of 12
Pollen 4.90 out of 12
Air Quality Not available.
Flu Activity Not available.
METAR KHXD 291450Z 36007KT 10SM BKN017 26/23 A3017 RMK LGT DSNT S AND SW
Pressure 30.17 in
Visibility 10.0 miles
Clouds Mostly Cloudy 1700 ft
Heat Index 79 °F
Dew Point 77 °F
Humidity 99%
Rainfall 0.14 in
Snow Depth Not available.
UV 4 out of 12
Pollen 4.90 out of 12
Air Quality Not available.
Flu Activity Not available.
METAR KHXD 291450Z 36007KT 10SM BKN017 26/23 A3017 RMK LGT DSNT S AND SW

10-Day Weather Forecast

×

Almanac

Astronomy

Aug. 29, 2015 Rise Set
Actual Time
Civil Twilight
Nautical Twilight
Astronomical Twilight
Moon
Length of Visible Light
Length of Day
Tomorrow will be .
, % of the Moon is Illuminated

Today's Extremes

State Highs State Lows

Community

WunderPhotos

Upload Photos

1,850,694 photos uploaded!

WunderBlogs® & News

Nearby

Air Quality

  Air Quality AQ Index Pollutant
Not available.

Snow Depth

Station Depth Elevation

Earthquake Activity

City Distance Mag. Time & Date
Minimum magnitude displayed is 2.5.

Coastal Water Temperatures

Place Temperature

Stations

Nearby Weather Stations

Station Location Temp. Windchill Dew Point Humidity Wind Precip. Elev Updated Type